Hundvaag 1 weather for Jun 2002
Month no. 180
Obs.
Da.
Temp. Dew Point Precip. Wind
Speed
Wind gusts Cloud cover Press. Humidity Wind dir. Sunny OPT
01.06.2002 13,9   0,7     10 1019,9     1  
02.06.2002 18,0   0,0     7 1019,6     1  
03.06.2002 14,1   0,0     9 1015,6     1  
04.06.2002 16,2   0,1     1 1009,5        
05.06.2002 16,0   4,5     2 1011,4     1  
06.06.2002 18,5   0,0     10 1012,2     1  
07.06.2002 16,1   0,0     9 1011,8     1  
08.06.2002 19,0   0,0     10 1010,6     1  
09.06.2002 20,3   0,0     10 1010,5     1  
10.06.2002 17,0   0,1     0 1008,3        
11.06.2002 12,7   12,9     0 1008,3        
12.06.2002 16,9   6,0     8 1010,0     1  
13.06.2002 11,1   17,1     1 1009,4     1  
14.06.2002 13,7   2,0     3 1010,0     1  
15.06.2002 14,8   3,1     0 1006,9     1  
16.06.2002 15,7   2,0     3 1010,5     1  
17.06.2002 14,5   0,6     0 1010,7        
18.06.2002 16,8   3,0     0 1006,5     1  
19.06.2002 14,1   0,1     2 1012,8     1  
20.06.2002 17,6   0,4     9 1016,7     1  
21.06.2002 13,6   0,0     3 1015,6     1  
22.06.2002 13,1   4,4     0 1013,1        
23.06.2002 12,9   19,3     3 1007,9        
24.06.2002 17,1   5,4     10 1012,8     1  
25.06.2002 13,2   2,5     1 1014,4        
26.06.2002 12,4   0,9     0 1013,3     1  
27.06.2002 9,9   14,7     2 1006,9     1  
28.06.2002 12,7   4,7     5 1007,2        
29.06.2002 13,4   0,0     8 1010,6     1  
30.06.2002 11,8   9,0     0 1008,1     1  
                       
Avrg/Sum 14,9   113,5     4,2 1011,4     22